createdAt,value
2022-12-18T00:05:09.523Z,73.90
2022-12-18T00:10:16.921Z,90.40
2022-12-18T00:15:27.324Z,68.40
2022-12-18T00:20:41.301Z,89.70
2022-12-18T00:26:32.704Z,93.50
2022-12-18T00:32:00.570Z,82.70
2022-12-18T00:37:30.578Z,81.30
2022-12-18T00:42:59.440Z,76.50
2022-12-18T00:48:12.476Z,90.20
2022-12-18T00:53:22.935Z,84.60
2022-12-18T00:58:33.543Z,78.80
2022-12-18T01:04:00.040Z,104.50
2022-12-18T01:09:21.576Z,83.40
2022-12-18T01:14:40.634Z,88.80
2022-12-18T01:19:58.523Z,80.70
2022-12-18T01:25:11.154Z,93.40
2022-12-18T01:30:21.644Z,74.70
2022-12-18T01:35:31.660Z,80.00
2022-12-18T01:41:06.967Z,78.80
2022-12-18T01:46:57.307Z,75.60
2022-12-18T01:52:26.909Z,78.20
2022-12-18T01:57:36.315Z,89.00
2022-12-18T02:02:45.709Z,78.00
2022-12-18T02:08:08.517Z,71.00
2022-12-18T02:13:22.875Z,74.60
2022-12-18T02:18:42.704Z,68.40
2022-12-18T02:23:59.752Z,91.10
2022-12-18T02:29:16.154Z,98.40
2022-12-18T02:34:29.990Z,80.40
2022-12-18T02:39:40.950Z,79.50
2022-12-18T02:44:53.975Z,61.10
2022-12-18T02:50:19.306Z,69.30
2022-12-18T02:55:58.280Z,72.10
2022-12-18T03:01:27.937Z,74.80
2022-12-18T03:06:52.462Z,65.30
2022-12-18T03:12:42.058Z,59.10
2022-12-18T03:18:21.976Z,71.10
2022-12-18T03:23:54.508Z,63.60
2022-12-18T03:30:01.411Z,67.00
2022-12-18T03:35:32.572Z,62.00
2022-12-18T03:40:59.962Z,66.90
2022-12-18T03:46:14.769Z,72.20
2022-12-18T03:51:30.669Z,62.10
2022-12-18T03:56:42.284Z,62.00
2022-12-18T04:01:54.431Z,55.20
2022-12-18T04:07:02.603Z,65.80
2022-12-18T04:12:11.992Z,54.30
2022-12-18T04:17:19.158Z,79.30
2022-12-18T04:22:27.183Z,82.90
2022-12-18T04:27:38.453Z,65.80
2022-12-18T04:32:51.903Z,69.00
2022-12-18T04:38:00.351Z,62.70
2022-12-18T04:43:08.404Z,71.20
2022-12-18T04:48:15.515Z,59.30
2022-12-18T04:53:22.381Z,70.20
2022-12-18T04:58:29.315Z,83.70
2022-12-18T05:03:36.980Z,74.00
2022-12-18T05:08:44.316Z,74.80
2022-12-18T05:13:51.467Z,83.40
2022-12-18T05:18:58.453Z,68.50
2022-12-18T05:24:05.772Z,64.00
2022-12-18T05:29:14.056Z,69.60
2022-12-18T05:34:21.272Z,79.10
2022-12-18T05:39:28.477Z,68.80
2022-12-18T05:44:35.532Z,77.50
2022-12-18T05:49:42.490Z,92.80
2022-12-18T05:54:49.502Z,73.50
2022-12-18T05:59:56.377Z,67.00
2022-12-18T06:05:03.435Z,74.30
2022-12-18T06:10:12.231Z,66.40
2022-12-18T06:15:19.321Z,80.90
2022-12-18T06:20:30.526Z,106.60
2022-12-18T06:25:42.462Z,83.90
2022-12-18T06:30:50.820Z,74.40
2022-12-18T06:36:01.896Z,73.20
2022-12-18T06:41:12.466Z,63.40
2022-12-18T06:46:19.681Z,61.80
2022-12-18T06:51:27.669Z,72.70
2022-12-18T06:56:34.741Z,85.40
2022-12-18T07:01:41.907Z,103.80
2022-12-18T07:06:49.173Z,88.30
2022-12-18T07:11:57.646Z,76.60
2022-12-18T07:17:05.132Z,109.10
2022-12-18T07:22:13.529Z,112.20
2022-12-18T07:27:20.524Z,103.60
2022-12-18T07:32:27.852Z,85.90
2022-12-18T07:37:34.979Z,93.30
2022-12-18T07:42:41.902Z,101.60
2022-12-18T07:47:48.900Z,92.40
2022-12-18T07:52:55.876Z,106.00
2022-12-18T07:58:06.042Z,112.40
2022-12-18T08:03:19.258Z,128.10
2022-12-18T08:08:26.252Z,127.00
2022-12-18T08:13:33.371Z,117.80
2022-12-18T08:18:41.095Z,112.00
2022-12-18T08:23:48.542Z,116.40
2022-12-18T08:28:58.006Z,111.90
2022-12-18T08:34:04.938Z,125.10
2022-12-18T08:39:12.267Z,108.70
2022-12-18T08:44:36.872Z,98.20
2022-12-18T08:49:43.727Z,91.10
2022-12-18T08:54:50.979Z,78.10
2022-12-18T08:59:59.380Z,88.80
2022-12-18T09:05:09.312Z,103.80
2022-12-18T09:10:19.451Z,72.20
2022-12-18T09:15:39.054Z,69.90
2022-12-18T09:21:03.719Z,80.80
2022-12-18T09:26:34.769Z,78.30
2022-12-18T09:32:09.848Z,68.10
2022-12-18T09:37:53.105Z,75.70
2022-12-18T09:43:22.866Z,66.30
2022-12-18T09:56:34.790Z,147.50
2022-12-18T10:02:09.003Z,204.70
2022-12-18T10:08:03.529Z,125.40
2022-12-18T10:13:51.698Z,78.30
2022-12-18T10:19:35.657Z,135.60
2022-12-18T10:25:28.675Z,119.90
2022-12-18T10:31:15.204Z,191.80
2022-12-18T10:37:14.859Z,75.70
2022-12-18T10:42:31.112Z,140.00
2022-12-18T10:47:54.422Z,154.70
2022-12-18T10:53:30.804Z,163.30
2022-12-18T10:59:22.278Z,189.60
2022-12-18T11:04:52.916Z,221.30
2022-12-18T11:10:08.453Z,427.70
2022-12-18T11:15:30.692Z,104.70
2022-12-18T11:21:29.574Z,90.80
2022-12-18T11:26:47.317Z,112.40
2022-12-18T11:32:38.698Z,82.00
2022-12-18T11:38:24.089Z,91.90
2022-12-18T11:44:00.453Z,86.50
2022-12-18T11:49:38.469Z,113.30
2022-12-18T11:55:31.619Z,156.60
2022-12-18T12:01:04.375Z,87.60
2022-12-18T12:13:58.525Z,113.50
2022-12-18T12:19:59.176Z,159.20
2022-12-18T12:25:33.734Z,195.00
2022-12-18T12:31:01.116Z,123.20
2022-12-18T12:36:32.339Z,105.80
2022-12-18T12:48:33.352Z,95.60
2022-12-18T13:07:15.919Z,84.10
2022-12-18T13:12:56.464Z,121.10
2022-12-18T13:18:33.445Z,128.20
2022-12-18T13:24:00.949Z,184.20
2022-12-18T13:31:05.777Z,99.70
2022-12-18T13:43:25.191Z,93.10
2022-12-18T14:03:16.432Z,124.70
2022-12-18T14:09:32.533Z,105.70
2022-12-18T14:16:59.603Z,147.40
2022-12-18T14:29:15.774Z,150.50
2022-12-18T14:36:18.987Z,206.80
2022-12-18T14:55:53.811Z,228.80
2022-12-18T15:02:50.473Z,163.80
2022-12-18T15:15:28.024Z,157.00
2022-12-18T15:21:32.223Z,159.70
2022-12-18T15:28:08.361Z,147.10
2022-12-18T15:35:20.790Z,154.20
2022-12-18T15:41:20.033Z,134.30
2022-12-18T15:53:46.317Z,159.30
2022-12-18T15:59:30.128Z,180.90
2022-12-18T16:05:32.975Z,128.30
2022-12-18T16:12:04.664Z,126.60
2022-12-18T16:39:26.644Z,129.80
2022-12-18T16:45:49.382Z,126.90
2022-12-18T16:51:45.168Z,150.70
2022-12-18T17:03:43.837Z,131.10
2022-12-18T17:10:07.578Z,141.50
2022-12-18T17:16:26.751Z,145.50
2022-12-18T17:22:25.995Z,140.40
2022-12-18T17:29:14.471Z,158.60
2022-12-18T17:34:58.253Z,118.70
2022-12-18T17:41:21.519Z,163.70
2022-12-18T17:47:26.245Z,152.30
2022-12-18T17:58:47.939Z,182.50
2022-12-18T18:04:44.346Z,159.30
2022-12-18T18:10:49.099Z,164.90
2022-12-18T18:16:37.343Z,193.80
2022-12-18T18:22:49.435Z,223.20
2022-12-18T18:28:19.863Z,212.30
2022-12-18T18:33:43.479Z,191.20
2022-12-18T18:39:33.672Z,201.00
2022-12-18T18:45:19.359Z,242.00
2022-12-18T18:51:21.424Z,208.50
2022-12-18T18:57:19.959Z,233.90
2022-12-18T19:03:38.213Z,242.90
2022-12-18T19:09:51.772Z,316.40
2022-12-18T19:16:16.264Z,278.40
2022-12-18T19:27:57.563Z,339.10
2022-12-18T19:33:42.511Z,281.40
2022-12-18T19:40:24.734Z,289.20
2022-12-18T19:46:35.663Z,276.10
2022-12-18T19:52:59.138Z,281.00
2022-12-18T19:58:46.114Z,280.50
2022-12-18T20:04:06.267Z,323.50
2022-12-18T20:09:27.278Z,291.60
2022-12-18T20:15:13.275Z,298.50
2022-12-18T20:20:52.608Z,347.50
2022-12-18T20:26:14.495Z,329.50
2022-12-18T20:32:24.278Z,277.90
2022-12-18T20:38:04.365Z,280.40
2022-12-18T20:43:55.245Z,261.40
2022-12-18T20:49:44.526Z,282.90
2022-12-18T21:07:58.559Z,321.50
2022-12-18T21:13:47.408Z,296.50
2022-12-18T21:20:18.570Z,297.30
2022-12-18T21:33:43.185Z,247.60
2022-12-18T21:39:52.656Z,260.70
2022-12-18T21:45:34.507Z,263.80
2022-12-18T21:51:58.754Z,272.50
2022-12-18T21:57:55.391Z,282.60
2022-12-18T22:03:27.914Z,255.40
2022-12-18T22:08:58.502Z,276.80
2022-12-18T22:14:05.627Z,254.20
2022-12-18T22:19:14.846Z,252.20
2022-12-18T22:24:23.587Z,272.50
2022-12-18T22:29:48.172Z,269.10
2022-12-18T22:34:55.229Z,268.20
2022-12-18T22:40:03.124Z,267.30
2022-12-18T22:45:12.668Z,268.40
2022-12-18T22:50:19.579Z,249.50
2022-12-18T22:55:26.772Z,257.40
2022-12-18T23:00:33.800Z,258.60
2022-12-18T23:05:40.797Z,273.50
2022-12-18T23:10:47.723Z,240.50
2022-12-18T23:15:54.780Z,231.60
2022-12-18T23:21:06.617Z,260.20
2022-12-18T23:26:16.864Z,241.70
2022-12-18T23:31:26.587Z,257.80
2022-12-18T23:36:48.448Z,282.70
2022-12-18T23:42:11.035Z,283.10
2022-12-18T23:48:31.826Z,271.40
2022-12-18T23:54:17.515Z,309.00
